Time;durP1;ratioP1;P1;durP2;ratioP2;P2;SDS_P1;SDS_P2;PMS_P1;PMS_P2;Temp;Humidity;BMP_temperature;BMP_pressure;BME280_temperature;BME280_humidity;BME280_pressure;Samples;Min_cycle;Max_cycle;Signal;HPM_P1;HPM_P2
2021/09/03 00:00:16;;;;;;;16.77;14.87;;;17.90;99.90;;;;;;5070554;28;20478;-65
2021/09/03 00:02:43;;;;;;;15.93;14.33;;;17.80;99.90;;;;;;5059862;28;20953;-65
2021/09/03 00:05:14;;;;;;;18.00;14.67;;;17.70;99.90;;;;;;5062963;28;20482;-65
2021/09/03 00:07:41;;;;;;;16.97;15.17;;;17.70;99.90;;;;;;5065872;28;20464;-65
2021/09/03 00:10:09;;;;;;;17.20;15.40;;;17.70;99.90;;;;;;5059196;28;20471;-65
2021/09/03 00:12:37;;;;;;;18.30;16.03;;;17.60;99.90;;;;;;5065960;28;20465;-66
2021/09/03 00:15:06;;;;;;;17.37;15.67;;;17.60;99.90;;;;;;5056616;28;20463;-65
2021/09/03 00:17:34;;;;;;;17.37;15.47;;;17.50;99.90;;;;;;5065686;28;20467;-65
2021/09/03 00:20:01;;;;;;;18.40;15.97;;;17.50;99.90;;;;;;5063367;28;20480;-64
2021/09/03 00:22:28;;;;;;;20.33;15.60;;;17.40;99.90;;;;;;5054154;28;20471;-64
2021/09/03 00:24:55;;;;;;;18.80;14.37;;;17.40;99.90;;;;;;5052600;28;20469;-64
2021/09/03 00:27:22;;;;;;;20.57;16.27;;;17.40;99.90;;;;;;5065830;28;21478;-64
2021/09/03 00:29:48;;;;;;;20.13;15.43;;;17.30;99.90;;;;;;5065604;28;20482;-64
2021/09/03 00:32:15;;;;;;;17.30;14.30;;;17.30;99.90;;;;;;5058622;28;20488;-64
2021/09/03 00:34:44;;;;;;;16.53;14.63;;;17.30;99.90;;;;;;5059771;28;20965;-65
2021/09/03 00:37:10;;;;;;;17.10;15.30;;;17.30;99.90;;;;;;5051264;28;20488;-65
2021/09/03 00:39:37;;;;;;;18.63;16.33;;;17.20;99.90;;;;;;5058298;28;20475;-65
2021/09/03 00:42:10;;;;;;;17.83;15.27;;;17.20;99.90;;;;;;5062312;28;20465;-65
2021/09/03 00:44:37;;;;;;;17.77;14.73;;;17.10;99.90;;;;;;5040347;28;20483;-65
2021/09/03 00:47:04;;;;;;;17.60;15.60;;;17.10;99.90;;;;;;5072354;28;20478;-65
2021/09/03 00:49:31;;;;;;;18.07;15.67;;;17.10;99.90;;;;;;5071421;28;20474;-65
2021/09/03 00:52:00;;;;;;;19.07;15.93;;;17.10;99.90;;;;;;5077941;28;20466;-65
2021/09/03 00:54:27;;;;;;;17.53;15.63;;;17.10;99.90;;;;;;5071857;28;20473;-65
2021/09/03 00:56:54;;;;;;;18.23;15.00;;;17.00;99.90;;;;;;5072169;28;20469;-65
2021/09/03 00:59:21;;;;;;;15.97;14.37;;;17.10;99.90;;;;;;5071280;28;20486;-65
2021/09/03 01:01:48;;;;;;;17.60;15.80;;;17.00;99.90;;;;;;5072411;28;20466;-64
2021/09/03 01:04:15;;;;;;;17.60;15.80;;;17.00;99.90;;;;;;5072347;28;20466;-65
2021/09/03 01:06:42;;;;;;;17.57;14.63;;;17.00;99.90;;;;;;5075822;28;21234;-64
2021/09/03 01:09:10;;;;;;;18.83;16.30;;;16.90;99.90;;;;;;5078609;28;20497;-65
2021/09/03 01:11:37;;;;;;;17.27;14.93;;;16.90;99.90;;;;;;5078558;28;20980;-64
2021/09/03 01:14:04;;;;;;;16.63;14.90;;;16.90;99.90;;;;;;5078649;28;20458;-65
2021/09/03 01:16:31;;;;;;;16.70;14.80;;;16.90;99.90;;;;;;5078365;28;20488;-65
2021/09/03 01:19:00;;;;;;;17.70;13.97;;;16.90;99.90;;;;;;5078767;28;20474;-63
2021/09/03 01:21:27;;;;;;;18.87;14.77;;;16.90;99.90;;;;;;5078048;28;20960;-64
2021/09/03 01:23:55;;;;;;;16.17;14.50;;;16.80;99.90;;;;;;5078248;28;20466;-64
2021/09/03 01:26:22;;;;;;;15.93;14.23;;;16.80;99.90;;;;;;5078433;28;20462;-64
2021/09/03 01:28:49;;;;;;;15.43;13.80;;;16.80;99.90;;;;;;5078683;28;20466;-64
2021/09/03 01:31:17;;;;;;;15.17;13.60;;;16.80;99.90;;;;;;5078672;28;20469;-64
2021/09/03 01:33:44;;;;;;;16.70;14.27;;;16.80;99.90;;;;;;5078131;28;20465;-64
2021/09/03 01:36:11;;;;;;;18.30;14.33;;;16.80;99.90;;;;;;5078188;28;20553;-64
2021/09/03 01:38:38;;;;;;;17.00;14.70;;;16.80;99.90;;;;;;5077676;28;20480;-64
2021/09/03 01:41:07;;;;;;;18.53;15.30;;;16.80;99.90;;;;;;5078822;28;20469;-64
2021/09/03 01:43:34;;;;;;;17.60;15.17;;;16.80;99.90;;;;;;5074932;28;20626;-64
2021/09/03 01:46:00;;;;;;;16.70;14.73;;;16.80;99.90;;;;;;5078413;28;20477;-64
2021/09/03 01:48:27;;;;;;;17.90;14.17;;;16.70;99.90;;;;;;5078270;28;20478;-65
2021/09/03 01:50:54;;;;;;;17.00;14.20;;;16.80;99.90;;;;;;5078253;28;20464;-65
2021/09/03 01:53:22;;;;;;;19.63;15.40;;;16.70;99.90;;;;;;5078094;28;20470;-65
2021/09/03 01:55:49;;;;;;;18.47;16.53;;;16.70;99.90;;;;;;5078654;28;20487;-65
2021/09/03 01:58:17;;;;;;;16.80;13.97;;;16.70;99.90;;;;;;5070611;28;20797;-65
2021/09/03 02:00:44;;;;;;;21.03;17.83;;;16.70;99.90;;;;;;5071059;28;20465;-65
2021/09/03 02:03:11;;;;;;;201.00;164.83;;;16.70;99.90;;;;;;5056276;28;20800;-65
2021/09/03 02:05:38;;;;;;;70.10;57.40;;;16.70;99.90;;;;;;5055588;28;20477;-65
2021/09/03 02:08:05;;;;;;;46.70;39.10;;;16.70;99.90;;;;;;5056169;28;20809;-65
2021/09/03 02:10:32;;;;;;;23.07;20.37;;;16.70;99.90;;;;;;5057317;28;20467;-65
2021/09/03 02:12:59;;;;;;;18.90;16.10;;;16.80;99.90;;;;;;5056424;28;20471;-64
2021/09/03 02:15:27;;;;;;;16.50;14.03;;;16.70;99.90;;;;;;5055790;28;20470;-65
2021/09/03 02:17:55;;;;;;;18.93;13.60;;;16.70;99.90;;;;;;5053728;28;20804;-65
2021/09/03 02:20:22;;;;;;;15.20;13.70;;;16.80;99.90;;;;;;5053518;28;20462;-66
2021/09/03 02:22:48;;;;;;;19.37;16.07;;;16.70;99.90;;;;;;5053551;28;20485;-65
2021/09/03 02:25:15;;;;;;;15.13;13.40;;;16.70;99.90;;;;;;5053612;28;20470;-65
2021/09/03 02:27:42;;;;;;;15.43;13.53;;;16.70;99.90;;;;;;5054795;28;20477;-65
2021/09/03 02:30:10;;;;;;;21.97;17.93;;;16.70;99.90;;;;;;5055313;28;20474;-64
2021/09/03 02:32:38;;;;;;;17.37;15.33;;;16.70;99.90;;;;;;5054946;28;20462;-65
2021/09/03 02:35:07;;;;;;;22.60;17.40;;;16.70;99.90;;;;;;5055294;28;20473;-65
2021/09/03 02:37:34;;;;;;;18.83;15.63;;;16.70;99.90;;;;;;5054557;28;20467;-65
2021/09/03 02:40:01;;;;;;;18.73;15.90;;;16.70;99.90;;;;;;5054971;28;20972;-66
2021/09/03 02:45:23;;;;;;;21.50;18.40;;;16.70;99.90;;;;;;5008200;28;20483;-63
2021/09/03 02:47:52;;;;;;;17.43;14.47;;;16.70;99.90;;;;;;5039541;28;20827;-64
2021/09/03 02:50:19;;;;;;;20.83;13.93;;;16.70;99.90;;;;;;5054831;28;20523;-63
2021/09/03 02:52:46;;;;;;;19.87;17.13;;;16.70;99.90;;;;;;5054286;28;20454;-64
2021/09/03 02:55:13;;;;;;;20.00;15.50;;;16.60;99.90;;;;;;5054784;28;20467;-64
2021/09/03 02:57:41;;;;;;;21.00;17.03;;;16.60;99.90;;;;;;5054142;28;20474;-64
2021/09/03 03:00:09;;;;;;;16.60;14.93;;;16.60;99.90;;;;;;5054784;28;20807;-64
2021/09/03 03:02:37;;;;;;;16.97;12.50;;;16.60;99.90;;;;;;5054407;28;20480;-64
2021/09/03 03:05:06;;;;;;;13.63;12.23;;;16.50;99.90;;;;;;5054620;28;20474;-64
2021/09/03 03:07:33;;;;;;;15.33;12.00;;;16.60;99.90;;;;;;5054087;28;20471;-64
2021/09/03 03:10:00;;;;;;;13.90;12.40;;;16.50;99.90;;;;;;5054520;28;20512;-65
2021/09/03 03:12:27;;;;;;;15.13;13.50;;;16.50;99.90;;;;;;5054518;28;20791;-64
2021/09/03 03:14:54;;;;;;;13.80;12.33;;;16.50;99.90;;;;;;5054224;28;20466;-64
2021/09/03 03:17:21;;;;;;;17.30;12.60;;;16.50;99.90;;;;;;5054364;28;20471;-64
2021/09/03 03:19:47;;;;;;;16.90;13.17;;;16.50;99.90;;;;;;5053686;28;20474;-64
2021/09/03 03:22:16;;;;;;;17.63;15.73;;;16.50;99.90;;;;;;5054313;28;20975;-65
2021/09/03 03:24:43;;;;;;;15.10;13.50;;;16.50;99.90;;;;;;5053774;28;20469;-65
2021/09/03 03:27:10;;;;;;;15.83;12.20;;;16.50;99.90;;;;;;5054155;28;20965;-65
2021/09/03 03:29:37;;;;;;;15.27;13.67;;;16.50;99.90;;;;;;5053428;28;20480;-65
2021/09/03 03:32:05;;;;;;;19.77;14.87;;;16.50;99.90;;;;;;5054018;28;20473;-65
2021/09/03 03:34:32;;;;;;;18.80;14.80;;;16.50;99.90;;;;;;5053731;28;20492;-65
2021/09/03 03:36:58;;;;;;;18.50;14.23;;;16.50;99.90;;;;;;5054116;28;20479;-65
2021/09/03 03:39:27;;;;;;;22.77;18.33;;;16.50;99.90;;;;;;5053823;28;20467;-65
2021/09/03 03:41:54;;;;;;;21.20;15.17;;;16.60;99.90;;;;;;5053465;28;20554;-65
2021/09/03 03:44:21;;;;;;;18.03;16.13;;;16.60;99.90;;;;;;5054122;28;20806;-66
2021/09/03 03:46:48;;;;;;;20.90;14.73;;;16.60;99.90;;;;;;5053138;28;20476;-65
2021/09/03 03:49:15;;;;;;;16.43;13.17;;;16.50;99.90;;;;;;5053716;28;20463;-65
2021/09/03 03:51:42;;;;;;;18.37;15.60;;;16.60;99.90;;;;;;5053474;28;20465;-65
2021/09/03 03:54:09;;;;;;;15.33;13.83;;;16.50;99.90;;;;;;5053513;28;20473;-65
2021/09/03 03:56:37;;;;;;;14.67;13.10;;;16.50;99.90;;;;;;5053050;28;20463;-65
2021/09/03 03:59:04;;;;;;;20.57;17.80;;;16.50;99.90;;;;;;5053680;28;20467;-65
2021/09/03 04:01:31;;;;;;;18.47;14.20;;;16.50;99.90;;;;;;5053481;28;20478;-64
2021/09/03 04:03:58;;;;;;;15.13;11.67;;;16.50;99.90;;;;;;5053184;28;20462;-65
2021/09/03 04:06:25;;;;;;;15.50;12.70;;;16.40;99.90;;;;;;5053305;28;20481;-65
2021/09/03 04:08:52;;;;;;;13.83;12.03;;;16.40;99.90;;;;;;5052704;28;20489;-65
2021/09/03 04:11:19;;;;;;;17.63;14.80;;;16.40;99.90;;;;;;5053282;28;20973;-65
2021/09/03 04:13:47;;;;;;;18.83;15.87;;;16.50;99.90;;;;;;5052657;28;20470;-65
2021/09/03 04:16:13;;;;;;;16.80;14.77;;;16.40;99.90;;;;;;5053327;28;20474;-65
2021/09/03 04:18:40;;;;;;;16.03;14.40;;;16.40;99.90;;;;;;5052708;28;20478;-65
2021/09/03 04:21:07;;;;;;;14.10;12.77;;;16.40;99.90;;;;;;5052928;28;20476;-65
2021/09/03 04:23:34;;;;;;;22.07;14.93;;;16.40;99.90;;;;;;5053381;28;20479;-65
2021/09/03 04:26:01;;;;;;;14.90;13.30;;;16.40;99.90;;;;;;5052830;28;21267;-65
2021/09/03 04:28:28;;;;;;;22.03;14.97;;;16.40;99.90;;;;;;5052969;28;20477;-64
2021/09/03 04:30:56;;;;;;;24.20;16.53;;;16.40;99.90;;;;;;5052422;28;20500;-65
2021/09/03 04:33:23;;;;;;;15.77;14.17;;;16.50;99.90;;;;;;5053058;28;20473;-65
2021/09/03 04:35:49;;;;;;;13.43;11.97;;;16.40;99.90;;;;;;5052183;28;20980;-65
2021/09/03 04:38:16;;;;;;;17.37;12.20;;;16.40;99.90;;;;;;5052748;28;20475;-65
2021/09/03 04:40:46;;;;;;;16.00;12.13;;;16.50;99.90;;;;;;5052008;28;20470;-65
2021/09/03 04:43:13;;;;;;;15.70;14.07;;;16.40;99.90;;;;;;5052170;28;20482;-64
2021/09/03 04:45:40;;;;;;;18.67;13.97;;;16.40;99.90;;;;;;5052158;28;20804;-64
2021/09/03 04:48:08;;;;;;;16.27;13.13;;;16.40;99.90;;;;;;5052655;28;20477;-64
2021/09/03 04:50:35;;;;;;;18.07;13.50;;;16.40;99.90;;;;;;5052723;28;20477;-64
2021/09/03 04:53:02;;;;;;;17.30;13.87;;;16.50;99.90;;;;;;5052300;28;20974;-64
2021/09/03 04:55:29;;;;;;;13.70;12.30;;;16.50;99.90;;;;;;5052721;28;20545;-64
2021/09/03 04:57:55;;;;;;;17.20;13.50;;;16.50;99.90;;;;;;5052082;28;20808;-64
2021/09/03 05:00:23;;;;;;;15.10;13.40;;;16.50;99.90;;;;;;5052918;28;20466;-64
2021/09/03 05:02:50;;;;;;;15.93;14.23;;;16.50;99.90;;;;;;5051978;28;20473;-64
2021/09/03 05:05:19;;;;;;;17.80;15.90;;;16.50;99.90;;;;;;5052538;28;20467;-65
2021/09/03 05:07:46;;;;;;;21.53;14.70;;;16.50;99.90;;;;;;5052228;28;20964;-65
2021/09/03 05:10:13;;;;;;;17.00;13.47;;;16.50;99.90;;;;;;5052631;28;20552;-65
2021/09/03 05:12:41;;;;;;;17.60;14.13;;;16.60;99.90;;;;;;5052109;28;20467;-65
2021/09/03 05:15:11;;;;;;;14.50;13.10;;;16.60;99.90;;;;;;5052522;28;20467;-65
2021/09/03 05:17:38;;;;;;;18.77;13.90;;;16.60;99.90;;;;;;5052468;28;20485;-65
2021/09/03 05:20:07;;;;;;;14.97;13.40;;;16.60;99.90;;;;;;5051855;28;20470;-65
2021/09/03 05:22:35;;;;;;;14.80;13.40;;;16.60;99.90;;;;;;5052284;28;20471;-64
2021/09/03 05:25:03;;;;;;;17.50;14.00;;;16.60;99.90;;;;;;5051948;28;20497;-64
2021/09/03 05:27:30;;;;;;;15.90;13.40;;;16.70;99.90;;;;;;5052229;28;20469;-64
2021/09/03 05:29:57;;;;;;;16.17;14.47;;;16.70;99.90;;;;;;5051811;28;20475;-65
2021/09/03 05:32:24;;;;;;;19.30;15.57;;;16.70;99.90;;;;;;5052216;28;20467;-66
2021/09/03 05:34:50;;;;;;;24.30;21.80;;;16.70;99.90;;;;;;5051656;28;20474;-66
2021/09/03 05:37:17;;;;;;;21.40;18.43;;;16.80;99.90;;;;;;5052318;28;20455;-66
2021/09/03 05:39:45;;;;;;;19.30;17.17;;;16.80;99.90;;;;;;5051538;28;20982;-65
2021/09/03 05:42:15;;;;;;;17.50;15.77;;;16.80;99.90;;;;;;5051953;28;20498;-66
2021/09/03 05:44:43;;;;;;;18.90;16.90;;;16.80;99.90;;;;;;5052198;28;20948;-66
2021/09/03 05:47:10;;;;;;;21.10;17.10;;;16.80;99.90;;;;;;5051508;28;20457;-64
2021/09/03 05:49:37;;;;;;;17.23;15.27;;;16.90;99.90;;;;;;5052063;28;20483;-65
2021/09/03 05:52:04;;;;;;;20.67;17.00;;;16.80;99.90;;;;;;5052392;28;20804;-65
2021/09/03 05:54:31;;;;;;;19.17;15.07;;;16.90;99.90;;;;;;5055870;28;20469;-65
2021/09/03 05:56:59;;;;;;;16.20;14.47;;;16.90;99.90;;;;;;5055240;28;20474;-65
2021/09/03 05:59:26;;;;;;;16.87;15.10;;;16.90;99.90;;;;;;5056036;28;20820;-65
2021/09/03 06:01:53;;;;;;;17.57;15.77;;;16.90;99.90;;;;;;5055260;28;20510;-65
2021/09/03 06:04:20;;;;;;;22.30;17.73;;;16.90;99.90;;;;;;5055847;28;20514;-65
2021/09/03 06:06:47;;;;;;;24.00;18.57;;;17.00;99.90;;;;;;5055212;28;20466;-64
2021/09/03 06:09:13;;;;;;;21.73;18.13;;;17.00;99.90;;;;;;5055517;28;20471;-64
2021/09/03 06:11:40;;;;;;;19.30;17.20;;;17.10;99.90;;;;;;5055686;28;20471;-64
2021/09/03 06:14:08;;;;;;;18.83;16.83;;;17.10;99.90;;;;;;5055117;28;20461;-64
2021/09/03 06:16:35;;;;;;;21.20;17.00;;;17.10;99.90;;;;;;5055588;28;20470;-64
2021/09/03 06:19:02;;;;;;;19.57;17.47;;;17.20;99.90;;;;;;5055029;28;20475;-65
2021/09/03 06:21:29;;;;;;;19.37;17.47;;;17.20;99.90;;;;;;5055144;28;20471;-64
2021/09/03 06:23:56;;;;;;;21.70;19.40;;;17.20;99.90;;;;;;5054779;28;20481;-64
2021/09/03 06:26:23;;;;;;;21.43;19.17;;;17.30;99.90;;;;;;5055386;28;20469;-65
2021/09/03 06:28:50;;;;;;;24.07;21.47;;;17.30;99.90;;;;;;5054983;28;20467;-65
2021/09/03 06:31:18;;;;;;;20.90;17.90;;;17.30;99.90;;;;;;5055132;28;20459;-65
2021/09/03 06:33:45;;;;;;;22.43;18.70;;;17.30;99.90;;;;;;5055428;28;20464;-65
2021/09/03 06:36:12;;;;;;;18.90;16.90;;;17.30;99.90;;;;;;5054694;28;20466;-66
2021/09/03 06:38:39;;;;;;;22.57;19.10;;;17.40;99.90;;;;;;5054882;28;20953;-64
2021/09/03 06:41:06;;;;;;;25.90;19.60;;;17.40;99.90;;;;;;5054870;28;20477;-64
2021/09/03 06:43:32;;;;;;;25.67;20.73;;;17.50;99.90;;;;;;5055032;28;20463;-64
2021/09/03 06:45:59;;;;;;;24.50;21.90;;;17.50;99.90;;;;;;5054599;28;20804;-64
2021/09/03 06:48:27;;;;;;;23.63;19.90;;;17.50;99.90;;;;;;5054864;28;20473;-64
2021/09/03 06:50:54;;;;;;;17.97;16.13;;;17.50;99.90;;;;;;5054413;28;20509;-64
2021/09/03 06:53:21;;;;;;;17.20;15.57;;;17.50;99.90;;;;;;5055056;28;20459;-65
2021/09/03 06:55:48;;;;;;;19.50;17.47;;;17.60;99.90;;;;;;5054876;28;20953;-64
2021/09/03 06:58:15;;;;;;;16.73;14.93;;;17.60;99.90;;;;;;5054232;28;20481;-65
2021/09/03 07:00:41;;;;;;;19.00;17.03;;;17.60;99.90;;;;;;5054825;28;20477;-65
2021/09/03 07:03:08;;;;;;;19.97;17.87;;;17.70;99.90;;;;;;5053965;28;20463;-65
2021/09/03 07:05:36;;;;;;;20.37;17.57;;;17.70;99.90;;;;;;5053906;28;20481;-65
2021/09/03 07:08:03;;;;;;;19.17;16.97;;;17.70;99.90;;;;;;5054154;28;20550;-65
2021/09/03 07:10:30;;;;;;;19.80;17.73;;;17.80;99.90;;;;;;5054378;28;20474;-65
2021/09/03 07:12:57;;;;;;;16.23;14.73;;;17.80;99.90;;;;;;5054029;28;20460;-65
2021/09/03 07:15:24;;;;;;;20.40;16.37;;;17.80;99.90;;;;;;5054361;28;20459;-65
2021/09/03 07:17:51;;;;;;;18.77;16.80;;;17.90;99.90;;;;;;5054167;28;20471;-64
2021/09/03 07:20:18;;;;;;;19.03;16.80;;;18.00;99.90;;;;;;5053979;28;20455;-65
2021/09/03 07:22:50;;;;;;;18.30;16.47;;;18.00;99.90;;;;;;5054255;28;20459;-65
2021/09/03 07:25:17;;;;;;;16.73;15.10;;;18.00;99.90;;;;;;5053664;28;20475;-64
2021/09/03 07:27:44;;;;;;;20.27;18.20;;;18.10;99.90;;;;;;5053940;28;20534;-65
2021/09/03 07:30:12;;;;;;;19.23;15.73;;;18.20;99.90;;;;;;5053617;28;20478;-64
2021/09/03 07:32:40;;;;;;;18.87;16.23;;;18.20;99.90;;;;;;5054224;28;20471;-65
2021/09/03 07:35:08;;;;;;;16.93;15.27;;;18.30;99.90;;;;;;5053399;28;20467;-65
2021/09/03 07:37:35;;;;;;;20.67;17.53;;;18.30;99.90;;;;;;5053687;28;20562;-65
2021/09/03 07:40:04;;;;;;;17.73;15.83;;;18.40;99.90;;;;;;5053032;28;20755;-64
2021/09/03 07:42:32;;;;;;;14.53;13.23;;;18.40;99.90;;;;;;5053956;28;21130;-64
2021/09/03 07:44:59;;;;;;;14.57;13.07;;;18.50;99.90;;;;;;5053101;28;20541;-64
2021/09/03 07:47:26;;;;;;;17.97;15.50;;;18.50;99.90;;;;;;5053484;28;20463;-64
2021/09/03 07:49:53;;;;;;;21.53;17.63;;;18.60;99.90;;;;;;5053738;28;20467;-64
2021/09/03 07:52:20;;;;;;;16.63;13.70;;;18.70;99.90;;;;;;5052580;28;20557;-64
2021/09/03 07:54:47;;;;;;;15.07;13.20;;;18.70;99.90;;;;;;5052778;28;20473;-64
2021/09/03 07:57:15;;;;;;;16.53;13.23;;;18.80;99.90;;;;;;5052426;28;20459;-64
2021/09/03 07:59:42;;;;;;;17.33;15.47;;;18.90;99.90;;;;;;5052365;28;20481;-64
2021/09/03 08:02:09;;;;;;;23.20;16.70;;;18.90;99.90;;;;;;5053038;28;20467;-64
2021/09/03 08:04:35;;;;;;;17.47;15.67;;;19.00;99.90;;;;;;5053645;28;20793;-64
2021/09/03 08:07:02;;;;;;;17.20;14.10;;;19.00;99.90;;;;;;5052777;28;20478;-64
2021/09/03 08:09:29;;;;;;;19.77;14.00;;;19.10;99.90;;;;;;5053343;28;20787;-64
2021/09/03 08:11:56;;;;;;;15.30;12.97;;;19.20;99.90;;;;;;5053499;28;20481;-64
2021/09/03 08:14:24;;;;;;;14.77;13.30;;;19.20;99.90;;;;;;5053193;28;21757;-66
2021/09/03 08:16:51;;;;;;;17.50;13.00;;;19.20;99.90;;;;;;5052346;28;20546;-65
2021/09/03 08:19:18;;;;;;;14.90;12.43;;;19.40;99.90;;;;;;5035273;28;20479;-65
2021/09/03 08:21:45;;;;;;;15.17;13.23;;;19.40;99.90;;;;;;5053142;28;20820;-65
2021/09/03 08:24:12;;;;;;;16.03;14.43;;;19.50;99.90;;;;;;5052706;28;20471;-64
2021/09/03 08:26:39;;;;;;;20.27;13.67;;;19.50;99.90;;;;;;5053191;28;20482;-65
2021/09/03 08:29:06;;;;;;;16.20;14.10;;;19.50;99.90;;;;;;5052580;28;20976;-65
2021/09/03 08:31:34;;;;;;;15.27;13.50;;;19.50;99.90;;;;;;5053110;28;20465;-65
2021/09/03 08:34:01;;;;;;;17.63;15.23;;;19.60;99.90;;;;;;5052670;28;20477;-65
2021/09/03 08:36:28;;;;;;;18.57;15.07;;;19.60;99.90;;;;;;5053128;28;20459;-65
2021/09/03 08:38:55;;;;;;;15.33;13.73;;;19.70;99.90;;;;;;5052770;28;20471;-65
2021/09/03 08:41:22;;;;;;;18.20;16.30;;;19.70;99.90;;;;;;5052314;28;20463;-65
2021/09/03 08:43:49;;;;;;;13.80;12.23;;;19.70;99.90;;;;;;5052750;28;20474;-65
2021/09/03 08:46:17;;;;;;;15.73;13.13;;;19.80;99.90;;;;;;5052403;28;20590;-65
2021/09/03 08:48:46;;;;;;;15.87;13.63;;;19.80;99.90;;;;;;5052595;28;20976;-65
2021/09/03 08:51:13;;;;;;;14.80;13.03;;;19.80;99.90;;;;;;5052114;28;20478;-66
2021/09/03 08:53:40;;;;;;;17.60;13.03;;;19.90;99.90;;;;;;5052784;28;20467;-65
2021/09/03 08:56:06;;;;;;;19.67;13.60;;;20.00;99.90;;;;;;5052340;28;20477;-65
2021/09/03 08:58:34;;;;;;;15.33;13.20;;;20.00;99.90;;;;;;5052458;28;20481;-64
2021/09/03 09:01:06;;;;;;;15.10;13.50;;;20.10;99.90;;;;;;5052633;28;20467;-64
2021/09/03 09:03:37;;;;;;;16.63;14.47;;;20.10;99.90;;;;;;5052321;28;20463;-64
2021/09/03 09:06:06;;;;;;;18.70;13.47;;;20.10;99.90;;;;;;5052536;28;20955;-65
2021/09/03 09:08:34;;;;;;;15.00;12.47;;;20.20;99.90;;;;;;5052011;28;20467;-65
2021/09/03 09:11:03;;;;;;;14.00;12.53;;;20.20;99.90;;;;;;5052789;28;20478;-65
2021/09/03 09:13:32;;;;;;;15.77;13.90;;;20.30;99.90;;;;;;5052029;28;20455;-65
2021/09/03 09:16:08;;;;;;;14.27;12.80;;;20.40;99.90;;;;;;5052788;28;20478;-65
2021/09/03 09:18:38;;;;;;;14.73;13.23;;;20.40;99.90;;;;;;5052284;28;20466;-65
2021/09/03 09:21:11;;;;;;;15.10;13.50;;;20.40;99.90;;;;;;5052308;28;20474;-65
2021/09/03 09:23:43;;;;;;;15.67;14.17;;;20.50;99.90;;;;;;5052394;28;20467;-65
2021/09/03 09:26:10;;;;;;;14.90;13.40;;;20.60;99.90;;;;;;5052483;28;20841;-65
2021/09/03 09:28:38;;;;;;;15.17;12.73;;;20.60;99.90;;;;;;5055294;28;20459;-64
2021/09/03 09:31:05;;;;;;;13.33;12.03;;;20.60;99.90;;;;;;5056365;28;20545;-64
2021/09/03 09:33:32;;;;;;;13.67;12.13;;;20.60;99.90;;;;;;5055918;28;20494;-64
2021/09/03 09:36:00;;;;;;;13.03;11.70;;;20.70;99.90;;;;;;5056350;28;20477;-64
2021/09/03 09:38:31;;;;;;;14.90;13.50;;;20.70;99.90;;;;;;5055768;28;20506;-64
2021/09/03 09:40:59;;;;;;;13.67;11.97;;;20.70;99.90;;;;;;5056215;28;20473;-64
2021/09/03 09:43:31;;;;;;;15.70;12.60;;;20.80;99.90;;;;;;5055652;28;20463;-64
2021/09/03 09:46:17;;;;;;;13.60;12.33;;;20.80;99.90;;;;;;5055987;28;20474;-65
2021/09/03 09:49:03;;;;;;;15.20;12.50;;;20.90;99.90;;;;;;5055785;28;21274;-64
2021/09/03 09:51:32;;;;;;;12.17;10.87;;;20.90;99.90;;;;;;5055492;28;20471;-65
2021/09/03 09:54:03;;;;;;;13.83;11.70;;;21.00;99.90;;;;;;5055989;28;20467;-64
2021/09/03 09:56:33;;;;;;;13.13;11.70;;;21.00;99.90;;;;;;5056138;28;20982;-65
2021/09/03 09:59:02;;;;;;;15.23;11.80;;;21.00;99.90;;;;;;5055329;28;20975;-64
2021/09/03 10:01:29;;;;;;;12.33;10.97;;;21.10;99.90;;;;;;5055877;28;20474;-65
2021/09/03 10:03:56;;;;;;;17.63;12.30;;;21.10;99.90;;;;;;5062829;28;20476;-65
2021/09/03 10:06:36;;;;;;;16.00;14.40;;;21.20;99.90;;;;;;5064469;28;20477;-65
2021/09/03 10:09:13;;;;;;;14.90;13.30;;;21.20;99.90;;;;;;5054008;28;20550;-64
2021/09/03 10:11:50;;;;;;;33.10;28.77;;;21.30;99.90;;;;;;5054421;28;20554;-64
2021/09/03 10:14:20;;;;;;;35.80;32.00;;;21.10;99.90;;;;;;5054712;28;20538;-64
2021/09/03 10:19:45;;;;;;;23.37;19.07;;;21.10;99.90;;;;;;5054412;28;20497;-64
2021/09/03 10:22:27;;;;;;;30.17;23.23;;;21.20;99.90;;;;;;5055131;28;20549;-64
2021/09/03 10:25:21;;;;;;;28.93;18.83;;;21.10;99.90;;;;;;5053872;28;20470;-64
2021/09/03 10:28:05;;;;;;;17.50;15.67;;;21.20;99.90;;;;;;5055557;28;20471;-64
2021/09/03 10:30:36;;;;;;;21.60;16.63;;;21.30;99.90;;;;;;5055517;28;20538;-65
2021/09/03 10:33:13;;;;;;;19.73;13.90;;;21.30;99.90;;;;;;5055086;28;21272;-64
2021/09/03 10:35:43;;;;;;;29.37;23.57;;;21.30;99.90;;;;;;5057727;28;20496;-64
2021/09/03 10:38:41;;;;;;;36.23;24.70;;;21.40;99.90;;;;;;5067336;28;20851;-64
2021/09/03 10:41:36;;;;;;;18.40;14.90;;;21.30;99.90;;;;;;5059160;28;21201;-64
2021/09/03 10:44:06;;;;;;;13.13;11.93;;;21.40;99.90;;;;;;5074588;28;20541;-65
2021/09/03 10:46:43;;;;;;;31.80;27.53;;;21.40;99.90;;;;;;5060859;28;20470;-64
2021/09/03 10:49:15;;;;;;;30.37;27.10;;;21.40;99.90;;;;;;5054569;28;20454;-64
2021/09/03 10:51:49;;;;;;;17.30;15.00;;;21.30;99.90;;;;;;5064632;28;20968;-64
2021/09/03 10:54:16;;;;;;;17.07;15.37;;;21.40;99.90;;;;;;5067027;28;20786;-64
2021/09/03 10:57:02;;;;;;;13.33;11.93;;;21.60;99.90;;;;;;5054274;28;20551;-64
2021/09/03 10:59:36;;;;;;;13.50;12.07;;;21.60;99.90;;;;;;5055087;28;20467;-64
2021/09/03 11:02:03;;;;;;;12.00;10.80;;;21.80;99.90;;;;;;5053639;28;20466;-64
2021/09/03 11:04:35;;;;;;;13.40;11.87;;;21.90;99.90;;;;;;5053211;28;21033;-64
2021/09/03 11:07:08;;;;;;;15.20;12.00;;;21.90;99.90;;;;;;5053977;28;20543;-65
2021/09/03 11:09:38;;;;;;;14.53;12.00;;;22.00;99.90;;;;;;5054441;28;21137;-65
2021/09/03 11:12:22;;;;;;;13.10;11.80;;;22.10;99.90;;;;;;5053853;28;20463;-65
2021/09/03 11:14:56;;;;;;;15.70;13.67;;;22.20;99.90;;;;;;5053906;28;20482;-65
2021/09/03 11:17:22;;;;;;;13.13;11.93;;;22.20;99.90;;;;;;5054486;28;20863;-65
2021/09/03 11:19:49;;;;;;;15.53;13.93;;;22.30;99.90;;;;;;5053741;28;20609;-65
2021/09/03 11:22:25;;;;;;;14.40;12.80;;;22.30;99.90;;;;;;5052789;28;20956;-63
2021/09/03 11:25:08;;;;;;;13.93;12.60;;;22.40;99.90;;;;;;5051600;28;20474;-63
2021/09/03 11:30:23;;;;;;;14.13;12.73;;;22.40;99.90;;;;;;5046857;28;20467;-64
2021/09/03 11:33:01;;;;;;;13.57;12.23;;;22.50;99.90;;;;;;5053585;28;20451;-64
2021/09/03 11:35:32;;;;;;;19.97;18.07;;;22.50;99.90;;;;;;5053532;28;20454;-65
2021/09/03 11:38:02;;;;;;;20.57;18.57;;;22.60;99.90;;;;;;5053860;28;20491;-65
2021/09/03 11:43:20;;;;;;;15.33;13.60;;;22.60;99.90;;;;;;5042347;28;20448;-64
2021/09/03 11:45:47;;;;;;;18.37;16.47;;;22.60;99.90;;;;;;5062809;28;20462;-65
2021/09/03 11:48:18;;;;;;;18.57;16.87;;;22.70;99.90;;;;;;5058011;28;20471;-65
2021/09/03 11:56:14;;;;;;;33.07;29.30;;;22.70;99.90;;;;;;5051587;28;21049;-65
2021/09/03 11:58:50;;;;;;;29.27;26.23;;;22.70;99.90;;;;;;5064559;28;20481;-65
2021/09/03 12:01:36;;;;;;;48.83;43.33;;;22.70;99.90;;;;;;5073459;28;20462;-64
2021/09/03 12:06:57;;;;;;;42.10;35.70;;;22.40;99.90;;;;;;5052458;28;20483;-65
2021/09/03 12:09:44;;;;;;;27.70;24.80;;;22.20;99.90;;;;;;5053036;28;20494;-65
2021/09/03 12:12:11;;;;;;;23.90;21.47;;;22.20;99.90;;;;;;5052344;28;20456;-64
2021/09/03 12:14:43;;;;;;;28.67;25.87;;;22.30;99.90;;;;;;5053662;28;20467;-65
2021/09/03 12:17:15;;;;;;;13.30;12.00;;;22.40;99.90;;;;;;5052816;28;20451;-65
2021/09/03 12:19:48;;;;;;;13.63;11.60;;;22.40;99.90;;;;;;5052659;28;20555;-64
2021/09/03 12:22:22;;;;;;;17.60;15.80;;;22.50;99.90;;;;;;5052756;28;20568;-65
2021/09/03 12:24:53;;;;;;;16.90;15.27;;;22.60;99.90;;;;;;5053113;28;20467;-65
2021/09/03 12:27:28;;;;;;;16.73;15.07;;;22.60;99.90;;;;;;5052700;28;21036;-65
2021/09/03 12:32:49;;;;;;;12.23;10.17;;;22.60;99.90;;;;;;5073815;27;1410686;-65
2021/09/03 12:35:19;;;;;;;12.50;11.20;;;22.70;99.80;;;;;;5089545;28;20227;-64
2021/09/03 12:38:04;;;;;;;12.40;11.30;;;22.80;99.60;;;;;;5081538;28;20462;-64
2021/09/03 12:40:33;;;;;;;14.77;13.37;;;22.80;99.80;;;;;;5049426;28;20810;-65
2021/09/03 12:43:09;;;;;;;15.93;14.33;;;22.80;99.90;;;;;;5049661;28;20985;-65
2021/09/03 12:45:46;;;;;;;13.90;12.50;;;22.80;99.90;;;;;;5054244;28;21207;-65
2021/09/03 12:48:24;;;;;;;16.33;14.73;;;22.90;99.90;;;;;;5049244;28;20471;-65
2021/09/03 12:51:01;;;;;;;20.20;18.13;;;22.90;99.80;;;;;;5049135;28;20475;-65
2021/09/03 12:53:40;;;;;;;22.37;20.17;;;22.90;99.70;;;;;;5049266;28;20542;-65
2021/09/03 12:56:14;;;;;;;26.57;23.77;;;22.90;99.50;;;;;;5049761;28;20933;-65